Airfield :
LOGIN :

Register | Disclaimer

   EN    FR    IT 

 










Legend :    VFR   Marginal VFR   IFR   Intensive IFR   Very Intensive IFR
Visi :
Ceiling :
>= 8 km
>= 3000ft
5 to 8 km
1000 to 3000 ft
1500m to 5 km
500 to 1000 ft
800 to 1500m
200 to 500 ft
< 800m
< 200 ft
Symbols :   Thunderstorms  Fog  Heavy snow  Heavy precipitations  Wind > 20 kt
SIGMETs :     Misc.  Thunderstorms  Icing  Turbulence  Mountain Waves  Volcanic Ashes






- Airport Elevation : 137 ft


LIPS - Istrana AFB Treviso

CURRENT METAR :
  • 290655Z /////KT 9999 OVC080 16/11 Q1008 RMK OVC VIS MIN 9999 WIND THR26 03008KT WIND THR08 06008KT BLU

EXPIRED METARs :
  • 290555Z /////KT 9999 OVC090 16/11 Q1008
  • 290455Z /////KT 9999 FEW035 BKN090 15/12 Q1008 RMK OVC VIS MIN 9999 WIND THR26 02010KT WIND THR08 05011KT BLU

TAF TAF LIPS
Valid from the 29 at 06:00 until the 29 at 15:00 UTC


290500Z 2906/2915 05012KT 9999 FEW035 BKN080
PROB30
TEMPO 2906/2909 06015G30KT 5000 SHRA FEW030CB BKN040



MET'MAP, your aeronautical weather chart ! - Copyright ORBIFLY December 2007 - Disclaimer

ORBIFLY MET'MAP TEAM :

Programming & Development : Alexandra Zaïnal
Original concept : Baudouin d'Aumeries
Technical & hardware support : Manuel Goepfert
Assistance : Marc-Olivier Méhu

Contact : metmap@orbifly.com




SOURCES & CREDITS :

   NOAA